Star Clipper — 9HA2513 — position and weather

sailwx.info

Track history (hours):
 
Tides and Currents Weather Stations Pressure Air Temp Water Temp Dewpoint Dewpoint Depression Visibility Wind Speed Wind Dir Waves Ship Positions

Star Clipper

Last reported at 2019-Jun-08 13:11 UTC. Time now 2019-Aug-24 19:51 UTC.
Position N 01°15' E 104°06'.
Warning: this ship's position is months out of date.

Length 111 m; draft 5.9 m.

Type: Other ship. MMSI: 248786000.

Date/timePositionNaut miles runAvg speedWind from/ knotsBaromVisibWave heightAir tempDewpointWater temp
2019-Jun-08 13:11N 01°15' E 104°06'2 7.9
2019-Jun-08 12:59N 01°15' E 104°05'4 7.7
2019-Jun-08 12:29N 01°15' E 104°01'4 7.7
2019-Jun-08 11:59N 01°14' E 103°57'4 7.2
2019-Jun-08 11:29N 01°14' E 103°54'3 5.5
2019-Jun-08 10:59N 01°16' E 103°52'0 0.0
2019-Jun-08 10:17N 01°16' E 103°52'0 0.0
2019-Jun-08 09:59N 01°16' E 103°52'0 0.1
2019-Jun-08 09:29N 01°16' E 103°52'0 0.1
2019-Jun-08 08:59N 01°16' E 103°52'0 0.0
2019-Jun-08 08:29N 01°16' E 103°52'0 0.0
2019-Jun-08 07:53N 01°16' E 103°52'0 0.0
2019-Jun-08 07:29N 01°16' E 103°52'0 0.0
2019-Jun-08 06:59N 01°16' E 103°52'0 0.0
2019-Jun-08 06:30N 01°16' E 103°52'0 0.0
2019-Jun-08 05:54N 01°16' E 103°52'0 0.2
2019-Jun-08 05:31N 01°16' E 103°52'0 0.1
2019-Jun-08 05:00N 01°16' E 103°52'0 0.0
2019-Jun-08 04:30N 01°16' E 103°52'0 0.0
2019-Jun-08 03:42N 01°16' E 103°52'0 0.0
2019-Jun-08 03:30N 01°16' E 103°52'0 0.0
2019-Jun-08 03:00N 01°16' E 103°52'0 0.1
2019-Jun-08 02:30N 01°16' E 103°52'0 0.1
2019-Jun-08 02:00N 01°16' E 103°52'0 0.0
2019-Jun-08 01:30N 01°16' E 103°52'0 0.0
2019-Jun-08 00:54N 01°16' E 103°52'0 0.0
2019-Jun-08 00:30N 01°16' E 103°52'0 0.0
2019-Jun-08 00:00N 01°16' E 103°52'0 0.0
2019-Jun-07 23:30N 01°16' E 103°52'1 2.4
2019-Jun-07 23:00N 01°15' E 103°52'4 7.1
2019-Jun-07 22:30N 01°14' E 103°55'4 7.3
2019-Jun-07 22:00N 01°15' E 103°59'4 7.0
2019-Jun-07 21:30N 01°16' E 104°02'4 4.5
2019-Jun-07 20:36N 01°14' E 104°06'2 0.6
2019-Jun-07 17:06N 01°13' E 104°08'1 0.7
2019-Jun-07 16:12N 01°13' E 104°07'0 0.5
2019-Jun-07 15:24N 01°13' E 104°07'1 0.9
2019-Jun-07 14:30N 01°13' E 104°06'1 1.7
2019-Jun-07 14:00N 01°13' E 104°05'0 0.0
2019-Jun-07 09:12N 01°13' E 104°05'0 0.0
2019-Jun-07 08:54N 01°13' E 104°05'0 0.0
2019-Jun-07 07:12N 01°13' E 104°05'0 0.0
2019-Jun-07 06:24N 01°13' E 104°05'0 0.0
2019-Jun-07 04:42N 01°13' E 104°05'0 0.0
2019-Jun-07 04:30N 01°13' E 104°05'0 0.0
2019-Jun-07 03:36N 01°13' E 104°05'0 0.0
2019-Jun-07 03:30N 01°13' E 104°05'0 0.0
2019-Jun-07 01:12N 01°13' E 104°05'0 0.0
2019-Jun-07 01:00N 01°13' E 104°05'  
Track history (hours):
 
Tides and Currents Weather Stations Pressure Air Temp Water Temp Dewpoint Dewpoint Depression Visibility Wind Speed Wind Dir Waves Ship Positions

Star Clipper

Last reported at 2019-Jun-08 13:11 UTC. Time now 2019-Aug-24 19:51 UTC.
Position N 01°15' E 104°06'.
Warning: this ship's position is months out of date.

Length 111 m; draft 5.9 m.

Type: Other ship. MMSI: 248786000.

Date/timePositionNaut miles runAvg speedWind from/ knotsBaromVisibWave heightAir tempDewpointWater temp
2019-Jun-08 13:11N 01°15' E 104°06'2 7.9
2019-Jun-08 12:59N 01°15' E 104°05'4 7.7
2019-Jun-08 12:29N 01°15' E 104°01'4 7.7
2019-Jun-08 11:59N 01°14' E 103°57'4 7.2
2019-Jun-08 11:29N 01°14' E 103°54'3 5.5
2019-Jun-08 10:59N 01°16' E 103°52'0 0.0
2019-Jun-08 10:17N 01°16' E 103°52'0 0.0
2019-Jun-08 09:59N 01°16' E 103°52'0 0.1
2019-Jun-08 09:29N 01°16' E 103°52'0 0.1
2019-Jun-08 08:59N 01°16' E 103°52'0 0.0
2019-Jun-08 08:29N 01°16' E 103°52'0 0.0
2019-Jun-08 07:53N 01°16' E 103°52'0 0.0
2019-Jun-08 07:29N 01°16' E 103°52'0 0.0
2019-Jun-08 06:59N 01°16' E 103°52'0 0.0
2019-Jun-08 06:30N 01°16' E 103°52'0 0.0
2019-Jun-08 05:54N 01°16' E 103°52'0 0.2
2019-Jun-08 05:31N 01°16' E 103°52'0 0.1
2019-Jun-08 05:00N 01°16' E 103°52'0 0.0
2019-Jun-08 04:30N 01°16' E 103°52'0 0.0
2019-Jun-08 03:42N 01°16' E 103°52'0 0.0
2019-Jun-08 03:30N 01°16' E 103°52'0 0.0
2019-Jun-08 03:00N 01°16' E 103°52'0 0.1
2019-Jun-08 02:30N 01°16' E 103°52'0 0.1
2019-Jun-08 02:00N 01°16' E 103°52'0 0.0
2019-Jun-08 01:30N 01°16' E 103°52'0 0.0
2019-Jun-08 00:54N 01°16' E 103°52'0 0.0
2019-Jun-08 00:30N 01°16' E 103°52'0 0.0
2019-Jun-08 00:00N 01°16' E 103°52'0 0.0
2019-Jun-07 23:30N 01°16' E 103°52'1 2.4
2019-Jun-07 23:00N 01°15' E 103°52'4 7.1
2019-Jun-07 22:30N 01°14' E 103°55'4 7.3
2019-Jun-07 22:00N 01°15' E 103°59'4 7.0
2019-Jun-07 21:30N 01°16' E 104°02'4 4.5
2019-Jun-07 20:36N 01°14' E 104°06'2 0.6
2019-Jun-07 17:06N 01°13' E 104°08'1 0.7
2019-Jun-07 16:12N 01°13' E 104°07'0 0.5
2019-Jun-07 15:24N 01°13' E 104°07'1 0.9
2019-Jun-07 14:30N 01°13' E 104°06'1 1.7
2019-Jun-07 14:00N 01°13' E 104°05'0 0.0
2019-Jun-07 09:12N 01°13' E 104°05'0 0.0
2019-Jun-07 08:54N 01°13' E 104°05'0 0.0
2019-Jun-07 07:12N 01°13' E 104°05'0 0.0
2019-Jun-07 06:24N 01°13' E 104°05'0 0.0
2019-Jun-07 04:42N 01°13' E 104°05'0 0.0
2019-Jun-07 04:30N 01°13' E 104°05'0 0.0
2019-Jun-07 03:36N 01°13' E 104°05'0 0.0
2019-Jun-07 03:30N 01°13' E 104°05'0 0.0
2019-Jun-07 01:12N 01°13' E 104°05'0 0.0
2019-Jun-07 01:00N 01°13' E 104°05'  

Dump ship's entire track history